sensor_id;sensor_type;location;lat;lon;timestamp;P1;durP1;ratioP1;P2;durP2;ratioP2
56477;SDS011;42382;53.210;5.772;2024-03-02T00:01:07;5.40;;;0.95;;
56477;SDS011;42382;53.210;5.772;2024-03-02T00:03:36;1.20;;;0.73;;
56477;SDS011;42382;53.210;5.772;2024-03-02T00:06:03;3.55;;;0.90;;
56477;SDS011;42382;53.210;5.772;2024-03-02T00:08:29;2.15;;;0.82;;
56477;SDS011;42382;53.210;5.772;2024-03-02T00:10:58;1.55;;;0.85;;
56477;SDS011;42382;53.210;5.772;2024-03-02T00:13:25;1.02;;;0.70;;
56477;SDS011;42382;53.210;5.772;2024-03-02T00:15:55;4.03;;;0.90;;
56477;SDS011;42382;53.210;5.772;2024-03-02T00:18:24;2.30;;;1.30;;
56477;SDS011;42382;53.210;5.772;2024-03-02T00:20:54;1.45;;;0.85;;
56477;SDS011;42382;53.210;5.772;2024-03-02T00:23:21;2.35;;;0.77;;
56477;SDS011;42382;53.210;5.772;2024-03-02T00:25:49;2.95;;;1.00;;
56477;SDS011;42382;53.210;5.772;2024-03-02T00:28:24;2.80;;;0.80;;
56477;SDS011;42382;53.210;5.772;2024-03-02T00:33:23;2.30;;;1.00;;
56477;SDS011;42382;53.210;5.772;2024-03-02T00:35:53;1.45;;;0.85;;
56477;SDS011;42382;53.210;5.772;2024-03-02T00:38:19;2.38;;;1.05;;
56477;SDS011;42382;53.210;5.772;2024-03-02T00:40:45;2.65;;;1.08;;
56477;SDS011;42382;53.210;5.772;2024-03-02T00:45:58;2.17;;;1.17;;
56477;SDS011;42382;53.210;5.772;2024-03-02T00:48:24;4.57;;;1.48;;
56477;SDS011;42382;53.210;5.772;2024-03-02T00:50:50;2.20;;;1.40;;
56477;SDS011;42382;53.210;5.772;2024-03-02T00:53:17;2.35;;;1.40;;
56477;SDS011;42382;53.210;5.772;2024-03-02T00:55:48;2.15;;;1.25;;
56477;SDS011;42382;53.210;5.772;2024-03-02T00:58:14;3.70;;;1.75;;
56477;SDS011;42382;53.210;5.772;2024-03-02T01:00:39;2.00;;;1.00;;
56477;SDS011;42382;53.210;5.772;2024-03-02T01:03:05;10.18;;;1.52;;
56477;SDS011;42382;53.210;5.772;2024-03-02T01:05:32;5.35;;;1.30;;
56477;SDS011;42382;53.210;5.772;2024-03-02T01:07:58;3.65;;;1.27;;
56477;SDS011;42382;53.210;5.772;2024-03-02T01:10:24;2.75;;;1.17;;
56477;SDS011;42382;53.210;5.772;2024-03-02T01:12:51;3.03;;;1.38;;
56477;SDS011;42382;53.210;5.772;2024-03-02T01:15:16;2.08;;;1.17;;
56477;SDS011;42382;53.210;5.772;2024-03-02T01:17:42;2.17;;;1.00;;
56477;SDS011;42382;53.210;5.772;2024-03-02T01:20:08;2.42;;;1.35;;
56477;SDS011;42382;53.210;5.772;2024-03-02T01:22:34;3.10;;;1.02;;
56477;SDS011;42382;53.210;5.772;2024-03-02T01:25:01;2.70;;;1.40;;
56477;SDS011;42382;53.210;5.772;2024-03-02T01:27:27;2.95;;;1.20;;
56477;SDS011;42382;53.210;5.772;2024-03-02T01:29:53;4.05;;;0.98;;
56477;SDS011;42382;53.210;5.772;2024-03-02T01:32:19;2.33;;;1.00;;
56477;SDS011;42382;53.210;5.772;2024-03-02T01:34:45;1.55;;;0.45;;
56477;SDS011;42382;53.210;5.772;2024-03-02T01:37:13;2.97;;;1.10;;
56477;SDS011;42382;53.210;5.772;2024-03-02T01:39:38;2.90;;;1.27;;
56477;SDS011;42382;53.210;5.772;2024-03-02T01:42:04;3.45;;;0.80;;
56477;SDS011;42382;53.210;5.772;2024-03-02T01:44:30;2.13;;;1.20;;
56477;SDS011;42382;53.210;5.772;2024-03-02T01:46:55;1.77;;;0.70;;
56477;SDS011;42382;53.210;5.772;2024-03-02T01:49:21;3.05;;;0.55;;
56477;SDS011;42382;53.210;5.772;2024-03-02T01:51:47;4.40;;;1.10;;
56477;SDS011;42382;53.210;5.772;2024-03-02T01:54:13;1.73;;;0.63;;
56477;SDS011;42382;53.210;5.772;2024-03-02T01:56:38;1.92;;;0.50;;
56477;SDS011;42382;53.210;5.772;2024-03-02T01:59:04;2.30;;;0.60;;
56477;SDS011;42382;53.210;5.772;2024-03-02T02:01:30;1.50;;;0.52;;
56477;SDS011;42382;53.210;5.772;2024-03-02T02:03:56;1.75;;;0.52;;
56477;SDS011;42382;53.210;5.772;2024-03-02T02:06:24;1.15;;;0.60;;
56477;SDS011;42382;53.210;5.772;2024-03-02T02:08:50;1.98;;;0.80;;
56477;SDS011;42382;53.210;5.772;2024-03-02T02:11:16;2.00;;;0.77;;
56477;SDS011;42382;53.210;5.772;2024-03-02T02:13:41;1.35;;;0.50;;
56477;SDS011;42382;53.210;5.772;2024-03-02T02:16:07;1.95;;;0.75;;
56477;SDS011;42382;53.210;5.772;2024-03-02T02:18:34;1.88;;;0.60;;
56477;SDS011;42382;53.210;5.772;2024-03-02T02:21:00;2.60;;;0.70;;
56477;SDS011;42382;53.210;5.772;2024-03-02T02:23:26;1.30;;;0.63;;
56477;SDS011;42382;53.210;5.772;2024-03-02T02:25:52;1.42;;;0.60;;
56477;SDS011;42382;53.210;5.772;2024-03-02T02:28:18;1.88;;;0.85;;
56477;SDS011;42382;53.210;5.772;2024-03-02T02:30:43;2.50;;;0.52;;
56477;SDS011;42382;53.210;5.772;2024-03-02T02:33:09;1.58;;;0.40;;
56477;SDS011;42382;53.210;5.772;2024-03-02T02:35:35;3.47;;;0.68;;
56477;SDS011;42382;53.210;5.772;2024-03-02T02:38:00;2.88;;;0.75;;
56477;SDS011;42382;53.210;5.772;2024-03-02T02:40:28;3.42;;;0.85;;
56477;SDS011;42382;53.210;5.772;2024-03-02T02:42:55;2.65;;;0.60;;
56477;SDS011;42382;53.210;5.772;2024-03-02T02:45:21;4.18;;;0.75;;
56477;SDS011;42382;53.210;5.772;2024-03-02T02:47:47;2.90;;;0.85;;
56477;SDS011;42382;53.210;5.772;2024-03-02T02:50:13;2.90;;;0.70;;
56477;SDS011;42382;53.210;5.772;2024-03-02T02:52:39;2.75;;;0.43;;
56477;SDS011;42382;53.210;5.772;2024-03-02T02:55:07;1.17;;;0.40;;
56477;SDS011;42382;53.210;5.772;2024-03-02T02:57:34;1.52;;;0.43;;
56477;SDS011;42382;53.210;5.772;2024-03-02T03:00:05;2.65;;;0.70;;
56477;SDS011;42382;53.210;5.772;2024-03-02T03:02:35;3.97;;;0.88;;
56477;SDS011;42382;53.210;5.772;2024-03-02T03:05:02;2.75;;;0.68;;
56477;SDS011;42382;53.210;5.772;2024-03-02T03:07:28;1.88;;;0.70;;
56477;SDS011;42382;53.210;5.772;2024-03-02T03:09:53;3.45;;;0.38;;
56477;SDS011;42382;53.210;5.772;2024-03-02T03:12:19;3.38;;;0.82;;
56477;SDS011;42382;53.210;5.772;2024-03-02T03:14:45;4.10;;;0.70;;
56477;SDS011;42382;53.210;5.772;2024-03-02T03:17:10;1.90;;;0.60;;
56477;SDS011;42382;53.210;5.772;2024-03-02T03:19:37;3.05;;;1.23;;
56477;SDS011;42382;53.210;5.772;2024-03-02T03:22:03;3.35;;;0.65;;
56477;SDS011;42382;53.210;5.772;2024-03-02T03:24:29;2.15;;;0.50;;
56477;SDS011;42382;53.210;5.772;2024-03-02T03:26:55;3.20;;;0.55;;
56477;SDS011;42382;53.210;5.772;2024-03-02T03:29:20;1.98;;;0.60;;
56477;SDS011;42382;53.210;5.772;2024-03-02T03:31:46;3.90;;;0.43;;
56477;SDS011;42382;53.210;5.772;2024-03-02T03:34:11;2.80;;;0.60;;
56477;SDS011;42382;53.210;5.772;2024-03-02T03:36:40;3.10;;;0.50;;
56477;SDS011;42382;53.210;5.772;2024-03-02T03:39:06;1.85;;;0.50;;
56477;SDS011;42382;53.210;5.772;2024-03-02T03:41:32;1.95;;;0.50;;
56477;SDS011;42382;53.210;5.772;2024-03-02T03:43:58;3.67;;;0.50;;
56477;SDS011;42382;53.210;5.772;2024-03-02T03:46:23;1.38;;;0.30;;
56477;SDS011;42382;53.210;5.772;2024-03-02T03:48:49;2.45;;;0.30;;
56477;SDS011;42382;53.210;5.772;2024-03-02T03:51:15;1.00;;;0.40;;
56477;SDS011;42382;53.210;5.772;2024-03-02T03:53:40;2.00;;;0.30;;
56477;SDS011;42382;53.210;5.772;2024-03-02T03:56:06;2.10;;;0.40;;
56477;SDS011;42382;53.210;5.772;2024-03-02T03:58:31;1.10;;;0.40;;
56477;SDS011;42382;53.210;5.772;2024-03-02T04:00:57;1.70;;;0.20;;
56477;SDS011;42382;53.210;5.772;2024-03-02T04:03:22;0.50;;;0.20;;
56477;SDS011;42382;53.210;5.772;2024-03-02T04:05:48;1.10;;;0.10;;
56477;SDS011;42382;53.210;5.772;2024-03-02T04:08:13;0.45;;;0.10;;
56477;SDS011;42382;53.210;5.772;2024-03-02T04:10:39;0.30;;;0.10;;
56477;SDS011;42382;53.210;5.772;2024-03-02T04:13:07;0.52;;;0.10;;
56477;SDS011;42382;53.210;5.772;2024-03-02T04:15:32;2.72;;;0.10;;
56477;SDS011;42382;53.210;5.772;2024-03-02T04:17:58;0.65;;;0.00;;
56477;SDS011;42382;53.210;5.772;2024-03-02T04:20:24;0.85;;;0.10;;
56477;SDS011;42382;53.210;5.772;2024-03-02T04:22:50;0.38;;;0.00;;
56477;SDS011;42382;53.210;5.772;2024-03-02T04:25:16;0.22;;;0.00;;
56477;SDS011;42382;53.210;5.772;2024-03-02T04:27:41;0.55;;;0.10;;
56477;SDS011;42382;53.210;5.772;2024-03-02T04:30:07;0.10;;;0.00;;
56477;SDS011;42382;53.210;5.772;2024-03-02T04:32:35;0.25;;;0.10;;
56477;SDS011;42382;53.210;5.772;2024-03-02T04:35:01;0.80;;;0.10;;
56477;SDS011;42382;53.210;5.772;2024-03-02T04:37:27;1.23;;;0.00;;
56477;SDS011;42382;53.210;5.772;2024-03-02T04:39:52;0.20;;;0.00;;
56477;SDS011;42382;53.210;5.772;2024-03-02T04:42:18;0.80;;;0.00;;
56477;SDS011;42382;53.210;5.772;2024-03-02T04:44:44;0.47;;;0.03;;
56477;SDS011;42382;53.210;5.772;2024-03-02T04:47:09;0.60;;;0.10;;
56477;SDS011;42382;53.210;5.772;2024-03-02T04:49:35;2.55;;;0.43;;
56477;SDS011;42382;53.210;5.772;2024-03-02T04:52:01;0.20;;;0.00;;
56477;SDS011;42382;53.210;5.772;2024-03-02T04:54:26;0.20;;;0.00;;
56477;SDS011;42382;53.210;5.772;2024-03-02T04:56:52;0.57;;;0.10;;
56477;SDS011;42382;53.210;5.772;2024-03-02T04:59:18;0.22;;;0.00;;
56477;SDS011;42382;53.210;5.772;2024-03-02T05:01:45;0.47;;;0.00;;
56477;SDS011;42382;53.210;5.772;2024-03-02T05:04:12;1.70;;;0.00;;
56477;SDS011;42382;53.210;5.772;2024-03-02T05:06:40;0.20;;;0.00;;
56477;SDS011;42382;53.210;5.772;2024-03-02T05:09:09;0.65;;;0.30;;
56477;SDS011;42382;53.210;5.772;2024-03-02T05:11:35;2.78;;;0.30;;
56477;SDS011;42382;53.210;5.772;2024-03-02T05:14:03;0.30;;;0.03;;
56477;SDS011;42382;53.210;5.772;2024-03-02T05:16:32;0.10;;;0.00;;
56477;SDS011;42382;53.210;5.772;2024-03-02T05:18:58;0.40;;;0.10;;
56477;SDS011;42382;53.210;5.772;2024-03-02T05:21:24;1.75;;;0.10;;
56477;SDS011;42382;53.210;5.772;2024-03-02T05:23:49;2.45;;;0.10;;
56477;SDS011;42382;53.210;5.772;2024-03-02T05:26:15;5.78;;;0.63;;
56477;SDS011;42382;53.210;5.772;2024-03-02T05:28:41;0.55;;;0.05;;
56477;SDS011;42382;53.210;5.772;2024-03-02T05:31:09;0.20;;;0.00;;
56477;SDS011;42382;53.210;5.772;2024-03-02T05:33:39;0.63;;;0.03;;
56477;SDS011;42382;53.210;5.772;2024-03-02T05:36:05;0.20;;;0.00;;
56477;SDS011;42382;53.210;5.772;2024-03-02T05:38:31;1.40;;;0.20;;
56477;SDS011;42382;53.210;5.772;2024-03-02T05:40:57;1.13;;;0.20;;
56477;SDS011;42382;53.210;5.772;2024-03-02T05:43:23;1.02;;;0.08;;
56477;SDS011;42382;53.210;5.772;2024-03-02T05:45:48;0.57;;;0.10;;
56477;SDS011;42382;53.210;5.772;2024-03-02T05:48:14;0.22;;;0.10;;
56477;SDS011;42382;53.210;5.772;2024-03-02T05:50:40;0.38;;;0.10;;
56477;SDS011;42382;53.210;5.772;2024-03-02T05:53:05;2.40;;;0.10;;
56477;SDS011;42382;53.210;5.772;2024-03-02T05:55:31;1.25;;;0.20;;
56477;SDS011;42382;53.210;5.772;2024-03-02T05:57:57;0.60;;;0.10;;
56477;SDS011;42382;53.210;5.772;2024-03-02T06:00:31;1.70;;;0.10;;
56477;SDS011;42382;53.210;5.772;2024-03-02T06:02:57;1.20;;;0.10;;
56477;SDS011;42382;53.210;5.772;2024-03-02T06:05:23;1.42;;;0.10;;
56477;SDS011;42382;53.210;5.772;2024-03-02T06:07:49;0.75;;;0.10;;
56477;SDS011;42382;53.210;5.772;2024-03-02T06:10:15;1.02;;;0.10;;
56477;SDS011;42382;53.210;5.772;2024-03-02T06:12:42;1.58;;;0.10;;
56477;SDS011;42382;53.210;5.772;2024-03-02T06:15:08;1.10;;;0.10;;
56477;SDS011;42382;53.210;5.772;2024-03-02T06:17:37;0.50;;;0.03;;
56477;SDS011;42382;53.210;5.772;2024-03-02T06:20:02;0.73;;;0.22;;
56477;SDS011;42382;53.210;5.772;2024-03-02T06:22:28;2.55;;;0.10;;
56477;SDS011;42382;53.210;5.772;2024-03-02T06:24:54;0.32;;;0.10;;
56477;SDS011;42382;53.210;5.772;2024-03-02T06:27:20;4.53;;;0.40;;
56477;SDS011;42382;53.210;5.772;2024-03-02T06:29:45;1.30;;;0.20;;
56477;SDS011;42382;53.210;5.772;2024-03-02T06:32:11;0.73;;;0.10;;
56477;SDS011;42382;53.210;5.772;2024-03-02T06:34:36;0.65;;;0.10;;
56477;SDS011;42382;53.210;5.772;2024-03-02T06:37:02;1.35;;;0.10;;
56477;SDS011;42382;53.210;5.772;2024-03-02T06:39:28;1.58;;;0.10;;
56477;SDS011;42382;53.210;5.772;2024-03-02T06:41:53;3.40;;;0.15;;
56477;SDS011;42382;53.210;5.772;2024-03-02T06:44:19;0.93;;;0.10;;
56477;SDS011;42382;53.210;5.772;2024-03-02T06:46:44;1.70;;;0.20;;
56477;SDS011;42382;53.210;5.772;2024-03-02T06:49:10;1.02;;;0.10;;
56477;SDS011;42382;53.210;5.772;2024-03-02T06:51:36;1.92;;;0.10;;
56477;SDS011;42382;53.210;5.772;2024-03-02T06:54:01;0.60;;;0.20;;
56477;SDS011;42382;53.210;5.772;2024-03-02T06:56:27;2.70;;;0.28;;
56477;SDS011;42382;53.210;5.772;2024-03-02T06:58:53;1.08;;;0.30;;
56477;SDS011;42382;53.210;5.772;2024-03-02T07:01:18;0.50;;;0.10;;
56477;SDS011;42382;53.210;5.772;2024-03-02T07:03:45;2.22;;;0.22;;
56477;SDS011;42382;53.210;5.772;2024-03-02T07:06:11;1.02;;;0.10;;
56477;SDS011;42382;53.210;5.772;2024-03-02T07:08:36;1.95;;;0.10;;
56477;SDS011;42382;53.210;5.772;2024-03-02T07:11:02;1.38;;;0.22;;
56477;SDS011;42382;53.210;5.772;2024-03-02T07:13:28;1.02;;;0.13;;
56477;SDS011;42382;53.210;5.772;2024-03-02T07:15:53;0.80;;;0.10;;
56477;SDS011;42382;53.210;5.772;2024-03-02T07:18:28;0.50;;;0.20;;
56477;SDS011;42382;53.210;5.772;2024-03-02T07:20:54;0.95;;;0.20;;
56477;SDS011;42382;53.210;5.772;2024-03-02T07:23:23;1.77;;;0.57;;
56477;SDS011;42382;53.210;5.772;2024-03-02T07:25:52;1.20;;;0.28;;
56477;SDS011;42382;53.210;5.772;2024-03-02T07:28:20;2.17;;;0.20;;
56477;SDS011;42382;53.210;5.772;2024-03-02T07:30:46;2.35;;;0.25;;
56477;SDS011;42382;53.210;5.772;2024-03-02T07:33:11;0.63;;;0.20;;
56477;SDS011;42382;53.210;5.772;2024-03-02T07:35:37;2.28;;;0.60;;
56477;SDS011;42382;53.210;5.772;2024-03-02T07:38:02;1.70;;;0.50;;
56477;SDS011;42382;53.210;5.772;2024-03-02T07:40:28;0.70;;;0.45;;
56477;SDS011;42382;53.210;5.772;2024-03-02T07:42:54;1.00;;;0.43;;
56477;SDS011;42382;53.210;5.772;2024-03-02T07:45:20;1.92;;;0.30;;
56477;SDS011;42382;53.210;5.772;2024-03-02T07:47:45;0.65;;;0.30;;
56477;SDS011;42382;53.210;5.772;2024-03-02T07:50:11;1.60;;;0.40;;
56477;SDS011;42382;53.210;5.772;2024-03-02T07:52:37;1.60;;;0.50;;
56477;SDS011;42382;53.210;5.772;2024-03-02T07:55:02;1.27;;;0.40;;
56477;SDS011;42382;53.210;5.772;2024-03-02T07:57:28;2.15;;;0.30;;
56477;SDS011;42382;53.210;5.772;2024-03-02T07:59:54;2.75;;;0.47;;
56477;SDS011;42382;53.210;5.772;2024-03-02T08:02:19;1.15;;;0.30;;
56477;SDS011;42382;53.210;5.772;2024-03-02T08:04:45;1.48;;;0.30;;
56477;SDS011;42382;53.210;5.772;2024-03-02T08:07:11;1.58;;;0.40;;
56477;SDS011;42382;53.210;5.772;2024-03-02T08:09:37;0.75;;;0.30;;
56477;SDS011;42382;53.210;5.772;2024-03-02T08:12:02;1.00;;;0.30;;
56477;SDS011;42382;53.210;5.772;2024-03-02T08:14:28;0.50;;;0.20;;
56477;SDS011;42382;53.210;5.772;2024-03-02T08:16:54;0.77;;;0.20;;
56477;SDS011;42382;53.210;5.772;2024-03-02T08:19:20;1.50;;;0.40;;
56477;SDS011;42382;53.210;5.772;2024-03-02T08:21:45;2.08;;;0.30;;
56477;SDS011;42382;53.210;5.772;2024-03-02T08:24:11;0.45;;;0.20;;
56477;SDS011;42382;53.210;5.772;2024-03-02T08:26:36;2.13;;;0.30;;
56477;SDS011;42382;53.210;5.772;2024-03-02T08:29:03;3.10;;;0.50;;
56477;SDS011;42382;53.210;5.772;2024-03-02T08:31:29;2.60;;;0.50;;
56477;SDS011;42382;53.210;5.772;2024-03-02T08:33:55;1.80;;;0.20;;
56477;SDS011;42382;53.210;5.772;2024-03-02T08:36:21;2.28;;;0.25;;
56477;SDS011;42382;53.210;5.772;2024-03-02T08:38:49;3.33;;;0.30;;
56477;SDS011;42382;53.210;5.772;2024-03-02T08:41:15;2.15;;;0.20;;
56477;SDS011;42382;53.210;5.772;2024-03-02T08:43:41;1.85;;;0.10;;
56477;SDS011;42382;53.210;5.772;2024-03-02T08:46:07;5.28;;;0.30;;
56477;SDS011;42382;53.210;5.772;2024-03-02T08:48:34;4.70;;;0.35;;
56477;SDS011;42382;53.210;5.772;2024-03-02T08:50:59;2.38;;;0.30;;
56477;SDS011;42382;53.210;5.772;2024-03-02T08:53:25;2.65;;;0.30;;
56477;SDS011;42382;53.210;5.772;2024-03-02T08:55:51;0.85;;;0.10;;
56477;SDS011;42382;53.210;5.772;2024-03-02T08:58:17;1.33;;;0.10;;
56477;SDS011;42382;53.210;5.772;2024-03-02T09:00:43;2.50;;;0.17;;
56477;SDS011;42382;53.210;5.772;2024-03-02T09:03:09;3.97;;;0.22;;
56477;SDS011;42382;53.210;5.772;2024-03-02T09:05:35;3.75;;;0.30;;
56477;SDS011;42382;53.210;5.772;2024-03-02T09:08:00;3.63;;;0.20;;
56477;SDS011;42382;53.210;5.772;2024-03-02T09:10:26;1.70;;;0.10;;
56477;SDS011;42382;53.210;5.772;2024-03-02T09:12:51;2.58;;;0.20;;
56477;SDS011;42382;53.210;5.772;2024-03-02T09:15:17;4.15;;;0.35;;
56477;SDS011;42382;53.210;5.772;2024-03-02T09:17:43;3.08;;;0.40;;
56477;SDS011;42382;53.210;5.772;2024-03-02T09:20:09;1.85;;;0.10;;
56477;SDS011;42382;53.210;5.772;2024-03-02T09:22:36;2.15;;;0.20;;
56477;SDS011;42382;53.210;5.772;2024-03-02T09:25:01;1.73;;;0.22;;
56477;SDS011;42382;53.210;5.772;2024-03-02T09:27:27;1.48;;;0.15;;
56477;SDS011;42382;53.210;5.772;2024-03-02T09:29:52;1.50;;;0.20;;
56477;SDS011;42382;53.210;5.772;2024-03-02T09:32:18;0.63;;;0.10;;
56477;SDS011;42382;53.210;5.772;2024-03-02T09:34:43;2.30;;;0.20;;
56477;SDS011;42382;53.210;5.772;2024-03-02T09:37:09;1.60;;;0.10;;
56477;SDS011;42382;53.210;5.772;2024-03-02T09:39:35;0.93;;;0.10;;
56477;SDS011;42382;53.210;5.772;2024-03-02T09:42:00;1.42;;;0.10;;
56477;SDS011;42382;53.210;5.772;2024-03-02T09:44:29;0.75;;;0.10;;
56477;SDS011;42382;53.210;5.772;2024-03-02T09:46:55;1.98;;;0.10;;
56477;SDS011;42382;53.210;5.772;2024-03-02T09:49:21;1.48;;;0.10;;
56477;SDS011;42382;53.210;5.772;2024-03-02T09:51:48;1.95;;;0.10;;
56477;SDS011;42382;53.210;5.772;2024-03-02T09:54:15;2.50;;;0.20;;
56477;SDS011;42382;53.210;5.772;2024-03-02T09:56:41;3.55;;;0.25;;
56477;SDS011;42382;53.210;5.772;2024-03-02T09:59:06;1.08;;;0.30;;
56477;SDS011;42382;53.210;5.772;2024-03-02T10:01:32;2.95;;;0.45;;
56477;SDS011;42382;53.210;5.772;2024-03-02T10:04:01;3.45;;;0.90;;
56477;SDS011;42382;53.210;5.772;2024-03-02T10:06:30;1.42;;;0.30;;
56477;SDS011;42382;53.210;5.772;2024-03-02T10:08:55;2.45;;;0.28;;
56477;SDS011;42382;53.210;5.772;2024-03-02T10:11:28;1.30;;;0.20;;
56477;SDS011;42382;53.210;5.772;2024-03-02T10:14:08;2.00;;;0.20;;
56477;SDS011;42382;53.210;5.772;2024-03-02T10:16:38;2.35;;;0.10;;
56477;SDS011;42382;53.210;5.772;2024-03-02T10:21:47;2.83;;;0.10;;
56477;SDS011;42382;53.210;5.772;2024-03-02T10:24:14;1.02;;;0.20;;
56477;SDS011;42382;53.210;5.772;2024-03-02T10:26:40;2.67;;;0.10;;
56477;SDS011;42382;53.210;5.772;2024-03-02T10:29:07;1.45;;;0.10;;
56477;SDS011;42382;53.210;5.772;2024-03-02T10:31:40;1.40;;;0.10;;
56477;SDS011;42382;53.210;5.772;2024-03-02T10:34:07;2.42;;;0.30;;
56477;SDS011;42382;53.210;5.772;2024-03-02T10:36:33;2.92;;;0.10;;
56477;SDS011;42382;53.210;5.772;2024-03-02T10:39:03;2.40;;;0.10;;
56477;SDS011;42382;53.210;5.772;2024-03-02T10:41:31;3.00;;;0.10;;
56477;SDS011;42382;53.210;5.772;2024-03-02T10:43:59;3.13;;;0.20;;
56477;SDS011;42382;53.210;5.772;2024-03-02T10:46:32;1.30;;;0.10;;
56477;SDS011;42382;53.210;5.772;2024-03-02T10:48:59;2.55;;;0.38;;
56477;SDS011;42382;53.210;5.772;2024-03-02T10:51:26;1.73;;;0.10;;
56477;SDS011;42382;53.210;5.772;2024-03-02T10:53:55;3.20;;;0.30;;
56477;SDS011;42382;53.210;5.772;2024-03-02T10:56:21;0.85;;;0.10;;
56477;SDS011;42382;53.210;5.772;2024-03-02T10:58:55;0.80;;;0.20;;
56477;SDS011;42382;53.210;5.772;2024-03-02T11:01:46;1.73;;;0.20;;
56477;SDS011;42382;53.210;5.772;2024-03-02T11:04:13;1.67;;;0.10;;
56477;SDS011;42382;53.210;5.772;2024-03-02T11:06:43;1.27;;;0.20;;
56477;SDS011;42382;53.210;5.772;2024-03-02T11:09:13;1.55;;;0.20;;
56477;SDS011;42382;53.210;5.772;2024-03-02T11:11:42;3.63;;;0.15;;
56477;SDS011;42382;53.210;5.772;2024-03-02T11:14:13;2.55;;;0.10;;
56477;SDS011;42382;53.210;5.772;2024-03-02T11:16:41;2.63;;;0.45;;
56477;SDS011;42382;53.210;5.772;2024-03-02T11:19:10;1.63;;;0.17;;
56477;SDS011;42382;53.210;5.772;2024-03-02T11:21:40;0.70;;;0.10;;
56477;SDS011;42382;53.210;5.772;2024-03-02T11:26:47;2.67;;;0.20;;
56477;SDS011;42382;53.210;5.772;2024-03-02T11:32:00;1.20;;;0.20;;
56477;SDS011;42382;53.210;5.772;2024-03-02T11:34:30;1.27;;;0.10;;
56477;SDS011;42382;53.210;5.772;2024-03-02T11:37:02;2.47;;;0.32;;
56477;SDS011;42382;53.210;5.772;2024-03-02T11:39:29;2.72;;;0.05;;
56477;SDS011;42382;53.210;5.772;2024-03-02T11:41:55;2.17;;;0.10;;
56477;SDS011;42382;53.210;5.772;2024-03-02T11:44:22;2.80;;;0.28;;
56477;SDS011;42382;53.210;5.772;2024-03-02T11:47:07;2.28;;;0.20;;
56477;SDS011;42382;53.210;5.772;2024-03-02T11:49:39;1.02;;;0.10;;
56477;SDS011;42382;53.210;5.772;2024-03-02T11:52:06;2.40;;;0.15;;
56477;SDS011;42382;53.210;5.772;2024-03-02T11:54:33;1.10;;;0.10;;
56477;SDS011;42382;53.210;5.772;2024-03-02T11:57:04;0.82;;;0.10;;
56477;SDS011;42382;53.210;5.772;2024-03-02T11:59:33;2.17;;;0.20;;
56477;SDS011;42382;53.210;5.772;2024-03-02T12:01:59;2.30;;;0.40;;
56477;SDS011;42382;53.210;5.772;2024-03-02T12:04:25;2.03;;;0.10;;
56477;SDS011;42382;53.210;5.772;2024-03-02T12:06:59;2.53;;;0.10;;
56477;SDS011;42382;53.210;5.772;2024-03-02T12:09:28;1.00;;;0.10;;
56477;SDS011;42382;53.210;5.772;2024-03-02T12:12:01;1.67;;;0.20;;
56477;SDS011;42382;53.210;5.772;2024-03-02T12:14:29;3.20;;;0.28;;
56477;SDS011;42382;53.210;5.772;2024-03-02T12:16:55;2.78;;;0.20;;
56477;SDS011;42382;53.210;5.772;2024-03-02T12:19:21;1.63;;;0.10;;
56477;SDS011;42382;53.210;5.772;2024-03-02T12:21:46;1.95;;;0.20;;
56477;SDS011;42382;53.210;5.772;2024-03-02T12:24:12;1.13;;;0.10;;
56477;SDS011;42382;53.210;5.772;2024-03-02T12:26:38;1.60;;;0.20;;
56477;SDS011;42382;53.210;5.772;2024-03-02T12:29:04;4.40;;;0.30;;
56477;SDS011;42382;53.210;5.772;2024-03-02T12:31:30;2.25;;;0.25;;
56477;SDS011;42382;53.210;5.772;2024-03-02T12:33:56;1.77;;;0.15;;
56477;SDS011;42382;53.210;5.772;2024-03-02T12:36:22;2.17;;;0.20;;
56477;SDS011;42382;53.210;5.772;2024-03-02T12:38:47;2.67;;;0.50;;
56477;SDS011;42382;53.210;5.772;2024-03-02T12:41:16;3.00;;;0.20;;
56477;SDS011;42382;53.210;5.772;2024-03-02T12:43:45;2.55;;;0.30;;
56477;SDS011;42382;53.210;5.772;2024-03-02T12:46:10;2.17;;;0.20;;
56477;SDS011;42382;53.210;5.772;2024-03-02T12:48:36;1.77;;;0.20;;
56477;SDS011;42382;53.210;5.772;2024-03-02T12:51:04;3.05;;;0.20;;
56477;SDS011;42382;53.210;5.772;2024-03-02T12:53:30;2.30;;;0.28;;
56477;SDS011;42382;53.210;5.772;2024-03-02T12:55:56;1.95;;;0.40;;
56477;SDS011;42382;53.210;5.772;2024-03-02T12:58:22;4.20;;;0.20;;
56477;SDS011;42382;53.210;5.772;2024-03-02T13:00:48;2.30;;;0.40;;
56477;SDS011;42382;53.210;5.772;2024-03-02T13:03:20;2.22;;;0.30;;
56477;SDS011;42382;53.210;5.772;2024-03-02T13:05:48;1.55;;;0.30;;
56477;SDS011;42382;53.210;5.772;2024-03-02T13:08:14;5.75;;;0.40;;
56477;SDS011;42382;53.210;5.772;2024-03-02T13:10:41;3.08;;;0.60;;
56477;SDS011;42382;53.210;5.772;2024-03-02T13:13:06;6.10;;;3.70;;
56477;SDS011;42382;53.210;5.772;2024-03-02T13:15:32;2.33;;;0.43;;
56477;SDS011;42382;53.210;5.772;2024-03-02T13:17:59;2.83;;;0.40;;
56477;SDS011;42382;53.210;5.772;2024-03-02T13:20:32;3.42;;;0.55;;
56477;SDS011;42382;53.210;5.772;2024-03-02T13:22:57;2.50;;;0.47;;
56477;SDS011;42382;53.210;5.772;2024-03-02T13:25:23;1.73;;;0.40;;
56477;SDS011;42382;53.210;5.772;2024-03-02T13:27:49;2.47;;;0.55;;
56477;SDS011;42382;53.210;5.772;2024-03-02T13:30:14;1.45;;;0.22;;
56477;SDS011;42382;53.210;5.772;2024-03-02T13:32:40;2.67;;;0.57;;
56477;SDS011;42382;53.210;5.772;2024-03-02T13:35:05;1.30;;;0.30;;
56477;SDS011;42382;53.210;5.772;2024-03-02T13:37:31;1.45;;;0.17;;
56477;SDS011;42382;53.210;5.772;2024-03-02T13:39:59;2.13;;;0.17;;
56477;SDS011;42382;53.210;5.772;2024-03-02T13:42:24;2.08;;;0.40;;
56477;SDS011;42382;53.210;5.772;2024-03-02T13:44:50;2.47;;;0.35;;
56477;SDS011;42382;53.210;5.772;2024-03-02T13:47:17;1.70;;;0.20;;
56477;SDS011;42382;53.210;5.772;2024-03-02T13:49:43;1.17;;;0.10;;
56477;SDS011;42382;53.210;5.772;2024-03-02T13:52:10;1.58;;;0.20;;
56477;SDS011;42382;53.210;5.772;2024-03-02T13:54:38;5.45;;;0.20;;
56477;SDS011;42382;53.210;5.772;2024-03-02T13:57:04;3.13;;;0.47;;
56477;SDS011;42382;53.210;5.772;2024-03-02T13:59:30;2.08;;;0.30;;
56477;SDS011;42382;53.210;5.772;2024-03-02T14:01:56;5.13;;;0.47;;
56477;SDS011;42382;53.210;5.772;2024-03-02T14:04:22;1.52;;;0.15;;
56477;SDS011;42382;53.210;5.772;2024-03-02T14:06:47;0.82;;;0.15;;
56477;SDS011;42382;53.210;5.772;2024-03-02T14:09:16;2.28;;;0.30;;
56477;SDS011;42382;53.210;5.772;2024-03-02T14:11:41;1.05;;;0.15;;
56477;SDS011;42382;53.210;5.772;2024-03-02T14:14:07;2.13;;;0.20;;
56477;SDS011;42382;53.210;5.772;2024-03-02T14:16:32;1.15;;;0.20;;
56477;SDS011;42382;53.210;5.772;2024-03-02T14:18:59;0.82;;;0.10;;
56477;SDS011;42382;53.210;5.772;2024-03-02T14:21:24;1.88;;;0.20;;
56477;SDS011;42382;53.210;5.772;2024-03-02T14:23:53;2.30;;;0.30;;
56477;SDS011;42382;53.210;5.772;2024-03-02T14:26:19;2.17;;;0.15;;
56477;SDS011;42382;53.210;5.772;2024-03-02T14:28:45;3.53;;;0.50;;
56477;SDS011;42382;53.210;5.772;2024-03-02T14:31:10;4.47;;;0.40;;
56477;SDS011;42382;53.210;5.772;2024-03-02T14:33:36;1.95;;;0.20;;
56477;SDS011;42382;53.210;5.772;2024-03-02T14:36:02;1.58;;;0.20;;
56477;SDS011;42382;53.210;5.772;2024-03-02T14:38:29;2.05;;;0.13;;
56477;SDS011;42382;53.210;5.772;2024-03-02T14:40:55;2.05;;;0.17;;
56477;SDS011;42382;53.210;5.772;2024-03-02T14:43:21;2.08;;;0.38;;
56477;SDS011;42382;53.210;5.772;2024-03-02T14:45:47;3.10;;;0.50;;
56477;SDS011;42382;53.210;5.772;2024-03-02T14:48:13;2.22;;;0.20;;
56477;SDS011;42382;53.210;5.772;2024-03-02T14:50:41;1.30;;;0.20;;
56477;SDS011;42382;53.210;5.772;2024-03-02T14:53:07;1.80;;;0.20;;
56477;SDS011;42382;53.210;5.772;2024-03-02T14:55:33;2.10;;;0.30;;
56477;SDS011;42382;53.210;5.772;2024-03-02T14:57:59;0.70;;;0.13;;